sensor_id;sensor_type;location;lat;lon;timestamp;P1;durP1;ratioP1;P2;durP2;ratioP2
63203;SDS011;49297;43.210;27.914;2022-10-19T00:01:06;9.73;;;7.97;;
63203;SDS011;49297;43.210;27.914;2022-10-19T00:03:39;8.77;;;7.45;;
63203;SDS011;49297;43.210;27.914;2022-10-19T00:06:09;7.80;;;6.88;;
63203;SDS011;49297;43.210;27.914;2022-10-19T00:08:43;10.85;;;9.75;;
63203;SDS011;49297;43.210;27.914;2022-10-19T00:11:10;17.90;;;16.27;;
63203;SDS011;49297;43.210;27.914;2022-10-19T00:13:37;59.15;;;53.38;;
63203;SDS011;49297;43.210;27.914;2022-10-19T00:16:11;36.60;;;32.77;;
63203;SDS011;49297;43.210;27.914;2022-10-19T00:18:38;40.33;;;36.53;;
63203;SDS011;49297;43.210;27.914;2022-10-19T00:21:06;47.38;;;42.80;;
63203;SDS011;49297;43.210;27.914;2022-10-19T00:23:33;45.85;;;38.65;;
63203;SDS011;49297;43.210;27.914;2022-10-19T00:26:00;43.30;;;35.65;;
63203;SDS011;49297;43.210;27.914;2022-10-19T00:28:27;37.80;;;32.53;;
63203;SDS011;49297;43.210;27.914;2022-10-19T00:30:54;37.47;;;30.90;;
63203;SDS011;49297;43.210;27.914;2022-10-19T00:33:23;34.72;;;30.13;;
63203;SDS011;49297;43.210;27.914;2022-10-19T00:35:50;31.05;;;28.00;;
63203;SDS011;49297;43.210;27.914;2022-10-19T00:38:19;30.77;;;27.58;;
63203;SDS011;49297;43.210;27.914;2022-10-19T00:40:46;33.40;;;28.45;;
63203;SDS011;49297;43.210;27.914;2022-10-19T00:43:14;32.80;;;27.08;;
63203;SDS011;49297;43.210;27.914;2022-10-19T00:45:46;35.42;;;27.45;;
63203;SDS011;49297;43.210;27.914;2022-10-19T00:48:13;28.77;;;25.25;;
63203;SDS011;49297;43.210;27.914;2022-10-19T00:50:43;29.20;;;24.15;;
63203;SDS011;49297;43.210;27.914;2022-10-19T00:53:12;25.45;;;22.83;;
63203;SDS011;49297;43.210;27.914;2022-10-19T00:55:41;28.95;;;25.95;;
63203;SDS011;49297;43.210;27.914;2022-10-19T00:58:08;28.20;;;25.67;;
63203;SDS011;49297;43.210;27.914;2022-10-19T01:00:35;30.60;;;27.10;;
63203;SDS011;49297;43.210;27.914;2022-10-19T01:03:01;38.53;;;31.75;;
63203;SDS011;49297;43.210;27.914;2022-10-19T01:05:29;35.55;;;32.10;;
63203;SDS011;49297;43.210;27.914;2022-10-19T01:07:58;33.60;;;30.20;;
63203;SDS011;49297;43.210;27.914;2022-10-19T01:10:50;34.25;;;29.85;;
63203;SDS011;49297;43.210;27.914;2022-10-19T01:13:21;36.75;;;32.83;;
63203;SDS011;49297;43.210;27.914;2022-10-19T01:19:04;40.10;;;33.38;;
63203;SDS011;49297;43.210;27.914;2022-10-19T01:25:18;33.90;;;30.45;;
63203;SDS011;49297;43.210;27.914;2022-10-19T01:36:48;34.75;;;31.48;;
63203;SDS011;49297;43.210;27.914;2022-10-19T01:38:53;33.10;;;30.13;;
63203;SDS011;49297;43.210;27.914;2022-10-19T01:47:25;31.75;;;28.60;;
63203;SDS011;49297;43.210;27.914;2022-10-19T01:50:05;32.60;;;29.10;;
63203;SDS011;49297;43.210;27.914;2022-10-19T01:52:39;31.38;;;28.20;;
63203;SDS011;49297;43.210;27.914;2022-10-19T01:55:09;33.13;;;28.50;;
63203;SDS011;49297;43.210;27.914;2022-10-19T01:57:44;32.30;;;29.40;;
63203;SDS011;49297;43.210;27.914;2022-10-19T02:00:13;33.78;;;30.10;;
63203;SDS011;49297;43.210;27.914;2022-10-19T02:02:43;36.97;;;31.33;;
63203;SDS011;49297;43.210;27.914;2022-10-19T02:05:12;37.55;;;34.45;;
63203;SDS011;49297;43.210;27.914;2022-10-19T02:07:40;42.07;;;34.20;;
63203;SDS011;49297;43.210;27.914;2022-10-19T02:10:17;49.90;;;38.40;;
63203;SDS011;49297;43.210;27.914;2022-10-19T02:12:45;45.75;;;35.55;;
63203;SDS011;49297;43.210;27.914;2022-10-19T02:15:16;39.83;;;35.85;;
63203;SDS011;49297;43.210;27.914;2022-10-19T02:17:47;40.60;;;35.53;;
63203;SDS011;49297;43.210;27.914;2022-10-19T02:20:15;39.25;;;35.58;;
63203;SDS011;49297;43.210;27.914;2022-10-19T02:22:42;37.88;;;33.85;;
63203;SDS011;49297;43.210;27.914;2022-10-19T02:25:14;37.83;;;32.15;;
63203;SDS011;49297;43.210;27.914;2022-10-19T02:27:40;44.97;;;35.90;;
63203;SDS011;49297;43.210;27.914;2022-10-19T02:30:08;42.83;;;35.92;;
63203;SDS011;49297;43.210;27.914;2022-10-19T02:32:36;56.78;;;50.80;;
63203;SDS011;49297;43.210;27.914;2022-10-19T02:35:02;93.88;;;73.63;;
63203;SDS011;49297;43.210;27.914;2022-10-19T02:37:29;96.57;;;69.78;;
63203;SDS011;49297;43.210;27.914;2022-10-19T02:39:57;79.27;;;66.13;;
63203;SDS011;49297;43.210;27.914;2022-10-19T02:50:23;51.22;;;32.15;;
63203;SDS011;49297;43.210;27.914;2022-10-19T02:55:19;63.75;;;26.83;;
63203;SDS011;49297;43.210;27.914;2022-10-19T02:57:45;48.35;;;29.60;;
63203;SDS011;49297;43.210;27.914;2022-10-19T03:00:11;50.13;;;29.20;;
63203;SDS011;49297;43.210;27.914;2022-10-19T03:02:38;32.08;;;28.73;;
63203;SDS011;49297;43.210;27.914;2022-10-19T03:05:05;69.97;;;28.70;;
63203;SDS011;49297;43.210;27.914;2022-10-19T03:07:31;67.40;;;26.92;;
63203;SDS011;49297;43.210;27.914;2022-10-19T03:10:03;61.78;;;27.88;;
63203;SDS011;49297;43.210;27.914;2022-10-19T03:12:31;67.57;;;30.42;;
63203;SDS011;49297;43.210;27.914;2022-10-19T03:14:56;57.17;;;29.55;;
63203;SDS011;49297;43.210;27.914;2022-10-19T03:17:22;42.35;;;31.95;;
63203;SDS011;49297;43.210;27.914;2022-10-19T03:19:49;64.18;;;31.80;;
63203;SDS011;49297;43.210;27.914;2022-10-19T03:22:15;43.97;;;32.08;;
63203;SDS011;49297;43.210;27.914;2022-10-19T03:24:42;57.33;;;31.97;;
63203;SDS011;49297;43.210;27.914;2022-10-19T03:27:08;57.80;;;32.70;;
63203;SDS011;49297;43.210;27.914;2022-10-19T03:29:34;49.80;;;34.28;;
63203;SDS011;49297;43.210;27.914;2022-10-19T03:32:00;67.87;;;37.37;;
63203;SDS011;49297;43.210;27.914;2022-10-19T03:34:28;97.50;;;38.10;;
63203;SDS011;49297;43.210;27.914;2022-10-19T03:36:55;84.75;;;43.85;;
63203;SDS011;49297;43.210;27.914;2022-10-19T03:39:23;80.85;;;45.08;;
63203;SDS011;49297;43.210;27.914;2022-10-19T03:41:52;64.57;;;47.45;;
63203;SDS011;49297;43.210;27.914;2022-10-19T03:44:19;55.80;;;48.53;;
63203;SDS011;49297;43.210;27.914;2022-10-19T03:46:45;86.20;;;54.17;;
63203;SDS011;49297;43.210;27.914;2022-10-19T03:49:11;100.85;;;58.83;;
63203;SDS011;49297;43.210;27.914;2022-10-19T03:51:39;77.50;;;64.88;;
63203;SDS011;49297;43.210;27.914;2022-10-19T03:54:06;84.78;;;68.22;;
63203;SDS011;49297;43.210;27.914;2022-10-19T03:56:36;80.53;;;68.55;;
63203;SDS011;49297;43.210;27.914;2022-10-19T03:59:03;118.90;;;67.80;;
63203;SDS011;49297;43.210;27.914;2022-10-19T04:01:39;107.97;;;71.93;;
63203;SDS011;49297;43.210;27.914;2022-10-19T04:04:12;87.13;;;72.38;;
63203;SDS011;49297;43.210;27.914;2022-10-19T04:06:43;107.07;;;75.72;;
63203;SDS011;49297;43.210;27.914;2022-10-19T04:09:14;131.65;;;78.07;;
63203;SDS011;49297;43.210;27.914;2022-10-19T04:11:43;114.38;;;70.30;;
63203;SDS011;49297;43.210;27.914;2022-10-19T04:14:11;113.50;;;67.32;;
63203;SDS011;49297;43.210;27.914;2022-10-19T04:16:39;115.38;;;72.07;;
63203;SDS011;49297;43.210;27.914;2022-10-19T04:19:05;121.80;;;69.18;;
63203;SDS011;49297;43.210;27.914;2022-10-19T04:21:32;124.40;;;73.30;;
63203;SDS011;49297;43.210;27.914;2022-10-19T04:24:01;106.47;;;71.33;;
63203;SDS011;49297;43.210;27.914;2022-10-19T04:26:29;134.32;;;64.18;;
63203;SDS011;49297;43.210;27.914;2022-10-19T04:28:58;98.80;;;68.43;;
63203;SDS011;49297;43.210;27.914;2022-10-19T04:31:26;101.65;;;63.33;;
63203;SDS011;49297;43.210;27.914;2022-10-19T04:33:54;113.03;;;63.97;;
63203;SDS011;49297;43.210;27.914;2022-10-19T04:36:22;82.75;;;61.05;;
63203;SDS011;49297;43.210;27.914;2022-10-19T04:38:48;79.95;;;66.40;;
63203;SDS011;49297;43.210;27.914;2022-10-19T04:41:15;87.07;;;64.57;;
63203;SDS011;49297;43.210;27.914;2022-10-19T04:43:43;89.88;;;61.67;;
63203;SDS011;49297;43.210;27.914;2022-10-19T04:46:12;83.38;;;59.45;;
63203;SDS011;49297;43.210;27.914;2022-10-19T04:48:43;82.88;;;57.78;;
63203;SDS011;49297;43.210;27.914;2022-10-19T04:51:15;76.20;;;52.70;;
63203;SDS011;49297;43.210;27.914;2022-10-19T04:53:43;73.90;;;50.30;;
63203;SDS011;49297;43.210;27.914;2022-10-19T04:56:19;73.83;;;49.03;;
63203;SDS011;49297;43.210;27.914;2022-10-19T04:58:48;80.23;;;49.60;;
63203;SDS011;49297;43.210;27.914;2022-10-19T05:01:20;68.45;;;47.50;;
63203;SDS011;49297;43.210;27.914;2022-10-19T05:03:51;64.97;;;49.55;;
63203;SDS011;49297;43.210;27.914;2022-10-19T05:06:18;83.00;;;44.27;;
63203;SDS011;49297;43.210;27.914;2022-10-19T05:08:44;88.53;;;38.03;;
63203;SDS011;49297;43.210;27.914;2022-10-19T05:11:15;90.13;;;39.78;;
63203;SDS011;49297;43.210;27.914;2022-10-19T05:13:44;87.40;;;43.25;;
63203;SDS011;49297;43.210;27.914;2022-10-19T05:16:20;58.92;;;46.60;;
63203;SDS011;49297;43.210;27.914;2022-10-19T05:18:50;56.27;;;50.37;;
63203;SDS011;49297;43.210;27.914;2022-10-19T05:21:22;67.93;;;50.10;;
63203;SDS011;49297;43.210;27.914;2022-10-19T05:23:50;71.07;;;45.33;;
63203;SDS011;49297;43.210;27.914;2022-10-19T05:26:19;84.80;;;47.67;;
63203;SDS011;49297;43.210;27.914;2022-10-19T05:28:51;73.83;;;51.30;;
63203;SDS011;49297;43.210;27.914;2022-10-19T05:31:22;89.27;;;55.70;;
63203;SDS011;49297;43.210;27.914;2022-10-19T05:33:50;60.28;;;54.30;;
63203;SDS011;49297;43.210;27.914;2022-10-19T05:36:17;64.80;;;48.35;;
63203;SDS011;49297;43.210;27.914;2022-10-19T05:38:45;66.43;;;45.90;;
63203;SDS011;49297;43.210;27.914;2022-10-19T05:41:14;70.05;;;47.13;;
63203;SDS011;49297;43.210;27.914;2022-10-19T05:43:42;56.20;;;44.75;;
63203;SDS011;49297;43.210;27.914;2022-10-19T05:46:10;66.30;;;46.00;;
63203;SDS011;49297;43.210;27.914;2022-10-19T05:48:38;57.67;;;45.75;;
63203;SDS011;49297;43.210;27.914;2022-10-19T05:51:25;65.13;;;43.25;;
63203;SDS011;49297;43.210;27.914;2022-10-19T05:53:52;53.38;;;45.47;;
63203;SDS011;49297;43.210;27.914;2022-10-19T05:56:20;63.20;;;42.35;;
63203;SDS011;49297;43.210;27.914;2022-10-19T05:58:48;62.45;;;43.35;;
63203;SDS011;49297;43.210;27.914;2022-10-19T06:01:15;54.57;;;43.90;;
63203;SDS011;49297;43.210;27.914;2022-10-19T06:03:45;47.67;;;41.17;;
63203;SDS011;49297;43.210;27.914;2022-10-19T06:06:12;47.60;;;40.10;;
63203;SDS011;49297;43.210;27.914;2022-10-19T06:08:38;52.78;;;38.85;;
63203;SDS011;49297;43.210;27.914;2022-10-19T06:11:12;44.70;;;39.83;;
63203;SDS011;49297;43.210;27.914;2022-10-19T06:13:52;45.65;;;38.25;;
63203;SDS011;49297;43.210;27.914;2022-10-19T06:16:20;46.95;;;37.63;;
63203;SDS011;49297;43.210;27.914;2022-10-19T06:18:48;52.83;;;34.97;;
63203;SDS011;49297;43.210;27.914;2022-10-19T06:21:16;41.45;;;29.73;;
63203;SDS011;49297;43.210;27.914;2022-10-19T06:23:48;35.45;;;31.80;;
63203;SDS011;49297;43.210;27.914;2022-10-19T06:26:15;38.70;;;34.55;;
63203;SDS011;49297;43.210;27.914;2022-10-19T06:28:42;37.47;;;33.75;;
63203;SDS011;49297;43.210;27.914;2022-10-19T06:31:10;40.77;;;31.60;;
63203;SDS011;49297;43.210;27.914;2022-10-19T06:33:38;37.42;;;32.55;;
63203;SDS011;49297;43.210;27.914;2022-10-19T06:36:06;44.50;;;40.15;;
63203;SDS011;49297;43.210;27.914;2022-10-19T06:38:36;47.63;;;42.85;;
63203;SDS011;49297;43.210;27.914;2022-10-19T06:41:04;54.10;;;46.05;;
63203;SDS011;49297;43.210;27.914;2022-10-19T06:43:31;51.60;;;46.28;;
63203;SDS011;49297;43.210;27.914;2022-10-19T06:45:58;51.20;;;45.67;;
63203;SDS011;49297;43.210;27.914;2022-10-19T06:48:29;50.45;;;45.58;;
63203;SDS011;49297;43.210;27.914;2022-10-19T06:51:07;51.10;;;45.97;;
63203;SDS011;49297;43.210;27.914;2022-10-19T06:53:34;51.05;;;42.33;;
63203;SDS011;49297;43.210;27.914;2022-10-19T06:56:02;50.77;;;44.40;;
63203;SDS011;49297;43.210;27.914;2022-10-19T06:58:30;49.43;;;44.53;;
63203;SDS011;49297;43.210;27.914;2022-10-19T07:03:30;50.83;;;45.75;;
63203;SDS011;49297;43.210;27.914;2022-10-19T07:05:59;46.08;;;41.40;;
63203;SDS011;49297;43.210;27.914;2022-10-19T07:08:27;45.67;;;41.08;;
63203;SDS011;49297;43.210;27.914;2022-10-19T07:10:56;40.28;;;36.50;;
63203;SDS011;49297;43.210;27.914;2022-10-19T07:13:23;37.15;;;33.42;;
63203;SDS011;49297;43.210;27.914;2022-10-19T07:16:00;36.00;;;32.20;;
63203;SDS011;49297;43.210;27.914;2022-10-19T07:18:30;35.05;;;31.35;;
63203;SDS011;49297;43.210;27.914;2022-10-19T07:20:57;32.92;;;29.63;;
63203;SDS011;49297;43.210;27.914;2022-10-19T07:23:24;32.38;;;28.95;;
63203;SDS011;49297;43.210;27.914;2022-10-19T07:25:52;31.98;;;28.80;;
63203;SDS011;49297;43.210;27.914;2022-10-19T07:28:24;29.85;;;26.98;;
63203;SDS011;49297;43.210;27.914;2022-10-19T07:30:50;34.85;;;31.30;;
63203;SDS011;49297;43.210;27.914;2022-10-19T07:33:16;32.23;;;28.93;;
63203;SDS011;49297;43.210;27.914;2022-10-19T07:35:42;39.38;;;31.35;;
63203;SDS011;49297;43.210;27.914;2022-10-19T07:38:10;39.97;;;36.03;;
63203;SDS011;49297;43.210;27.914;2022-10-19T07:40:36;42.30;;;38.00;;
63203;SDS011;49297;43.210;27.914;2022-10-19T07:43:02;39.63;;;35.78;;
63203;SDS011;49297;43.210;27.914;2022-10-19T07:45:34;41.28;;;36.58;;
63203;SDS011;49297;43.210;27.914;2022-10-19T07:47:59;40.90;;;36.65;;
63203;SDS011;49297;43.210;27.914;2022-10-19T07:50:25;37.67;;;33.88;;
63203;SDS011;49297;43.210;27.914;2022-10-19T07:52:52;36.92;;;33.33;;
63203;SDS011;49297;43.210;27.914;2022-10-19T07:55:19;41.78;;;37.33;;
63203;SDS011;49297;43.210;27.914;2022-10-19T07:57:48;42.17;;;37.83;;
63203;SDS011;49297;43.210;27.914;2022-10-19T08:00:15;44.25;;;39.42;;
63203;SDS011;49297;43.210;27.914;2022-10-19T08:02:42;44.00;;;39.42;;
63203;SDS011;49297;43.210;27.914;2022-10-19T08:05:09;44.10;;;39.33;;
63203;SDS011;49297;43.210;27.914;2022-10-19T08:07:36;51.45;;;40.03;;
63203;SDS011;49297;43.210;27.914;2022-10-19T08:10:03;52.92;;;47.25;;
63203;SDS011;49297;43.210;27.914;2022-10-19T08:12:29;49.22;;;43.08;;
63203;SDS011;49297;43.210;27.914;2022-10-19T08:14:56;48.42;;;43.47;;
63203;SDS011;49297;43.210;27.914;2022-10-19T08:17:22;55.28;;;44.78;;
63203;SDS011;49297;43.210;27.914;2022-10-19T08:19:49;61.60;;;45.20;;
63203;SDS011;49297;43.210;27.914;2022-10-19T08:22:16;53.90;;;47.95;;
63203;SDS011;49297;43.210;27.914;2022-10-19T08:24:42;57.17;;;46.78;;
63203;SDS011;49297;43.210;27.914;2022-10-19T08:27:10;65.60;;;49.85;;
63203;SDS011;49297;43.210;27.914;2022-10-19T08:29:37;62.80;;;50.17;;
63203;SDS011;49297;43.210;27.914;2022-10-19T08:32:03;65.25;;;50.15;;
63203;SDS011;49297;43.210;27.914;2022-10-19T08:34:29;68.40;;;50.70;;
63203;SDS011;49297;43.210;27.914;2022-10-19T08:36:55;60.35;;;46.33;;
63203;SDS011;49297;43.210;27.914;2022-10-19T08:39:21;55.45;;;43.40;;
63203;SDS011;49297;43.210;27.914;2022-10-19T08:42:01;59.28;;;42.13;;
63203;SDS011;49297;43.210;27.914;2022-10-19T08:47:39;50.90;;;41.70;;
63203;SDS011;49297;43.210;27.914;2022-10-19T08:50:39;53.53;;;38.00;;
63203;SDS011;49297;43.210;27.914;2022-10-19T08:59:12;42.10;;;34.27;;
63203;SDS011;49297;43.210;27.914;2022-10-19T09:01:42;42.03;;;31.75;;
63203;SDS011;49297;43.210;27.914;2022-10-19T09:04:27;32.13;;;28.60;;
63203;SDS011;49297;43.210;27.914;2022-10-19T09:10:17;31.27;;;27.33;;
63203;SDS011;49297;43.210;27.914;2022-10-19T09:12:55;32.75;;;28.67;;
63203;SDS011;49297;43.210;27.914;2022-10-19T09:15:29;35.80;;;28.17;;
63203;SDS011;49297;43.210;27.914;2022-10-19T09:18:00;27.55;;;24.40;;
63203;SDS011;49297;43.210;27.914;2022-10-19T09:20:37;20.67;;;18.43;;
63203;SDS011;49297;43.210;27.914;2022-10-19T09:25:46;16.85;;;15.10;;
63203;SDS011;49297;43.210;27.914;2022-10-19T09:28:35;19.10;;;17.10;;
63203;SDS011;49297;43.210;27.914;2022-10-19T09:31:13;17.97;;;16.17;;
63203;SDS011;49297;43.210;27.914;2022-10-19T09:33:48;22.73;;;19.00;;
63203;SDS011;49297;43.210;27.914;2022-10-19T09:36:21;19.02;;;17.10;;
63203;SDS011;49297;43.210;27.914;2022-10-19T09:38:49;20.38;;;16.55;;
63203;SDS011;49297;43.210;27.914;2022-10-19T09:41:18;20.50;;;14.27;;
63203;SDS011;49297;43.210;27.914;2022-10-19T09:43:50;11.10;;;9.93;;
63203;SDS011;49297;43.210;27.914;2022-10-19T09:49:44;10.18;;;9.10;;
63203;SDS011;49297;43.210;27.914;2022-10-19T09:58:04;15.60;;;13.45;;
63203;SDS011;49297;43.210;27.914;2022-10-19T10:00:40;17.08;;;9.90;;
63203;SDS011;49297;43.210;27.914;2022-10-19T10:03:24;12.55;;;8.90;;
63203;SDS011;49297;43.210;27.914;2022-10-19T10:05:52;9.50;;;8.38;;
63203;SDS011;49297;43.210;27.914;2022-10-19T10:08:29;11.38;;;7.80;;
63203;SDS011;49297;43.210;27.914;2022-10-19T10:13:37;12.00;;;8.43;;
63203;SDS011;49297;43.210;27.914;2022-10-19T10:16:07;15.13;;;7.82;;
63203;SDS011;49297;43.210;27.914;2022-10-19T10:18:44;16.20;;;7.30;;
63203;SDS011;49297;43.210;27.914;2022-10-19T10:21:20;9.90;;;5.83;;
63203;SDS011;49297;43.210;27.914;2022-10-19T10:24:32;10.73;;;5.65;;
63203;SDS011;49297;43.210;27.914;2022-10-19T10:26:59;7.10;;;4.80;;
63203;SDS011;49297;43.210;27.914;2022-10-19T10:32:13;6.73;;;5.23;;
63203;SDS011;49297;43.210;27.914;2022-10-19T10:35:03;12.10;;;5.53;;
63203;SDS011;49297;43.210;27.914;2022-10-19T10:37:38;6.33;;;5.73;;
63203;SDS011;49297;43.210;27.914;2022-10-19T10:40:29;6.70;;;5.38;;
63203;SDS011;49297;43.210;27.914;2022-10-19T10:43:00;6.75;;;5.50;;
63203;SDS011;49297;43.210;27.914;2022-10-19T10:50:47;7.65;;;5.50;;
63203;SDS011;49297;43.210;27.914;2022-10-19T10:56:22;9.32;;;5.05;;
63203;SDS011;49297;43.210;27.914;2022-10-19T11:01:26;8.23;;;5.47;;
63203;SDS011;49297;43.210;27.914;2022-10-19T11:04:01;7.60;;;4.35;;
63203;SDS011;49297;43.210;27.914;2022-10-19T11:06:33;9.90;;;5.43;;
63203;SDS011;49297;43.210;27.914;2022-10-19T11:09:14;7.13;;;5.70;;
63203;SDS011;49297;43.210;27.914;2022-10-19T11:11:56;8.45;;;5.13;;
63203;SDS011;49297;43.210;27.914;2022-10-19T11:14:42;5.33;;;4.17;;
63203;SDS011;49297;43.210;27.914;2022-10-19T11:17:17;7.00;;;3.67;;
63203;SDS011;49297;43.210;27.914;2022-10-19T11:19:47;4.80;;;3.78;;
63203;SDS011;49297;43.210;27.914;2022-10-19T11:30:49;8.90;;;7.13;;
63203;SDS011;49297;43.210;27.914;2022-10-19T11:33:44;31.58;;;19.33;;
63203;SDS011;49297;43.210;27.914;2022-10-19T11:50:47;10.35;;;7.97;;
63203;SDS011;49297;43.210;27.914;2022-10-19T12:05:21;7.35;;;5.60;;
63203;SDS011;49297;43.210;27.914;2022-10-19T12:13:14;5.13;;;3.92;;
63203;SDS011;49297;43.210;27.914;2022-10-19T12:15:48;5.72;;;3.83;;
63203;SDS011;49297;43.210;27.914;2022-10-19T12:18:40;4.95;;;3.88;;
63203;SDS011;49297;43.210;27.914;2022-10-19T12:21:18;7.30;;;4.03;;
63203;SDS011;49297;43.210;27.914;2022-10-19T12:23:49;9.20;;;4.47;;
63203;SDS011;49297;43.210;27.914;2022-10-19T12:26:19;4.35;;;3.95;;
63203;SDS011;49297;43.210;27.914;2022-10-19T12:28:51;6.22;;;4.70;;
63203;SDS011;49297;43.210;27.914;2022-10-19T12:31:22;5.55;;;4.28;;
63203;SDS011;49297;43.210;27.914;2022-10-19T12:34:12;4.70;;;3.63;;
63203;SDS011;49297;43.210;27.914;2022-10-19T12:37:00;11.07;;;3.55;;
63203;SDS011;49297;43.210;27.914;2022-10-19T12:42:19;10.55;;;4.78;;
63203;SDS011;49297;43.210;27.914;2022-10-19T12:45:09;9.13;;;4.30;;
63203;SDS011;49297;43.210;27.914;2022-10-19T12:53:27;6.60;;;4.07;;
63203;SDS011;49297;43.210;27.914;2022-10-19T12:58:48;6.25;;;3.75;;
63203;SDS011;49297;43.210;27.914;2022-10-19T13:04:20;7.20;;;5.65;;
63203;SDS011;49297;43.210;27.914;2022-10-19T13:06:50;5.00;;;4.05;;
63203;SDS011;49297;43.210;27.914;2022-10-19T13:09:29;7.73;;;4.03;;
63203;SDS011;49297;43.210;27.914;2022-10-19T13:14:41;6.32;;;3.97;;
63203;SDS011;49297;43.210;27.914;2022-10-19T13:27:52;10.00;;;4.53;;
63203;SDS011;49297;43.210;27.914;2022-10-19T13:38:33;6.32;;;4.80;;
63203;SDS011;49297;43.210;27.914;2022-10-19T13:43:38;7.93;;;4.40;;
63203;SDS011;49297;43.210;27.914;2022-10-19T13:52:33;9.40;;;5.03;;
63203;SDS011;49297;43.210;27.914;2022-10-19T14:11:12;12.03;;;5.37;;
63203;SDS011;49297;43.210;27.914;2022-10-19T14:13:43;6.90;;;5.35;;
63203;SDS011;49297;43.210;27.914;2022-10-19T14:16:16;5.75;;;5.05;;
63203;SDS011;49297;43.210;27.914;2022-10-19T14:18:56;7.07;;;4.53;;
63203;SDS011;49297;43.210;27.914;2022-10-19T14:21:30;7.13;;;4.63;;
63203;SDS011;49297;43.210;27.914;2022-10-19T14:23:58;10.30;;;5.75;;
63203;SDS011;49297;43.210;27.914;2022-10-19T14:26:26;9.07;;;4.60;;
63203;SDS011;49297;43.210;27.914;2022-10-19T14:28:55;3.92;;;3.63;;
63203;SDS011;49297;43.210;27.914;2022-10-19T14:31:33;6.03;;;4.50;;
63203;SDS011;49297;43.210;27.914;2022-10-19T14:34:01;11.50;;;4.80;;
63203;SDS011;49297;43.210;27.914;2022-10-19T14:36:32;6.00;;;5.20;;
63203;SDS011;49297;43.210;27.914;2022-10-19T14:39:02;5.25;;;4.65;;
63203;SDS011;49297;43.210;27.914;2022-10-19T14:41:32;8.75;;;5.68;;
63203;SDS011;49297;43.210;27.914;2022-10-19T14:44:00;5.78;;;4.68;;
63203;SDS011;49297;43.210;27.914;2022-10-19T14:46:31;11.15;;;6.45;;
63203;SDS011;49297;43.210;27.914;2022-10-19T14:49:02;6.80;;;5.15;;
63203;SDS011;49297;43.210;27.914;2022-10-19T14:57:10;10.30;;;4.85;;
63203;SDS011;49297;43.210;27.914;2022-10-19T15:00:06;9.85;;;5.18;;
63203;SDS011;49297;43.210;27.914;2022-10-19T15:02:41;9.60;;;5.53;;
63203;SDS011;49297;43.210;27.914;2022-10-19T15:05:18;6.28;;;4.75;;
63203;SDS011;49297;43.210;27.914;2022-10-19T15:07:54;11.27;;;5.78;;
63203;SDS011;49297;43.210;27.914;2022-10-19T15:12:47;11.68;;;5.57;;
63203;SDS011;49297;43.210;27.914;2022-10-19T15:15:38;10.60;;;6.13;;
63203;SDS011;49297;43.210;27.914;2022-10-19T15:18:06;12.05;;;6.78;;
63203;SDS011;49297;43.210;27.914;2022-10-19T15:20:40;8.32;;;6.47;;
63203;SDS011;49297;43.210;27.914;2022-10-19T15:26:01;7.25;;;6.28;;
63203;SDS011;49297;43.210;27.914;2022-10-19T15:28:39;7.57;;;6.22;;
63203;SDS011;49297;43.210;27.914;2022-10-19T15:31:11;13.93;;;9.25;;
63203;SDS011;49297;43.210;27.914;2022-10-19T15:33:45;23.92;;;11.88;;
63203;SDS011;49297;43.210;27.914;2022-10-19T15:36:14;26.27;;;11.83;;
63203;SDS011;49297;43.210;27.914;2022-10-19T15:39:04;16.63;;;12.40;;
63203;SDS011;49297;43.210;27.914;2022-10-19T15:41:34;12.60;;;9.63;;
63203;SDS011;49297;43.210;27.914;2022-10-19T15:44:27;15.70;;;9.02;;
63203;SDS011;49297;43.210;27.914;2022-10-19T15:52:21;16.50;;;8.68;;
63203;SDS011;49297;43.210;27.914;2022-10-19T15:54:49;16.23;;;9.07;;
63203;SDS011;49297;43.210;27.914;2022-10-19T15:57:24;12.63;;;8.88;;
63203;SDS011;49297;43.210;27.914;2022-10-19T15:59:54;14.13;;;9.70;;
63203;SDS011;49297;43.210;27.914;2022-10-19T16:02:21;14.73;;;8.82;;
63203;SDS011;49297;43.210;27.914;2022-10-19T16:04:49;15.10;;;9.43;;
63203;SDS011;49297;43.210;27.914;2022-10-19T16:07:23;18.93;;;9.60;;
63203;SDS011;49297;43.210;27.914;2022-10-19T16:09:55;13.80;;;10.50;;
63203;SDS011;49297;43.210;27.914;2022-10-19T16:12:22;14.93;;;9.77;;
63203;SDS011;49297;43.210;27.914;2022-10-19T16:14:52;22.05;;;10.70;;
63203;SDS011;49297;43.210;27.914;2022-10-19T16:17:20;17.88;;;11.43;;
63203;SDS011;49297;43.210;27.914;2022-10-19T16:19:47;15.23;;;11.15;;
63203;SDS011;49297;43.210;27.914;2022-10-19T16:22:15;18.98;;;12.30;;
63203;SDS011;49297;43.210;27.914;2022-10-19T16:24:41;18.45;;;12.88;;
63203;SDS011;49297;43.210;27.914;2022-10-19T16:27:07;19.77;;;13.05;;
63203;SDS011;49297;43.210;27.914;2022-10-19T16:29:33;16.98;;;14.18;;
63203;SDS011;49297;43.210;27.914;2022-10-19T16:31:59;24.92;;;16.50;;
63203;SDS011;49297;43.210;27.914;2022-10-19T16:34:26;22.92;;;16.17;;
63203;SDS011;49297;43.210;27.914;2022-10-19T16:36:51;25.63;;;18.55;;
63203;SDS011;49297;43.210;27.914;2022-10-19T16:40:02;27.73;;;23.25;;
63203;SDS011;49297;43.210;27.914;2022-10-19T16:42:29;18.80;;;16.13;;
63203;SDS011;49297;43.210;27.914;2022-10-19T16:44:55;28.00;;;17.90;;
63203;SDS011;49297;43.210;27.914;2022-10-19T16:47:22;23.63;;;16.75;;
63203;SDS011;49297;43.210;27.914;2022-10-19T16:49:52;21.10;;;15.52;;
63203;SDS011;49297;43.210;27.914;2022-10-19T16:52:23;23.00;;;16.27;;
63203;SDS011;49297;43.210;27.914;2022-10-19T16:54:49;24.38;;;15.93;;
63203;SDS011;49297;43.210;27.914;2022-10-19T16:57:15;19.00;;;15.05;;
63203;SDS011;49297;43.210;27.914;2022-10-19T16:59:41;18.33;;;15.77;;
63203;SDS011;49297;43.210;27.914;2022-10-19T17:02:08;19.50;;;14.73;;
63203;SDS011;49297;43.210;27.914;2022-10-19T17:04:36;16.75;;;14.95;;
63203;SDS011;49297;43.210;27.914;2022-10-19T17:07:04;21.52;;;14.55;;
63203;SDS011;49297;43.210;27.914;2022-10-19T17:09:30;18.23;;;14.55;;
63203;SDS011;49297;43.210;27.914;2022-10-19T17:11:56;19.70;;;14.77;;
63203;SDS011;49297;43.210;27.914;2022-10-19T17:14:23;18.05;;;13.10;;
63203;SDS011;49297;43.210;27.914;2022-10-19T17:16:50;20.88;;;13.52;;
63203;SDS011;49297;43.210;27.914;2022-10-19T17:19:17;16.10;;;13.60;;
63203;SDS011;49297;43.210;27.914;2022-10-19T17:21:44;19.00;;;14.23;;
63203;SDS011;49297;43.210;27.914;2022-10-19T17:24:13;18.20;;;13.63;;
63203;SDS011;49297;43.210;27.914;2022-10-19T17:26:41;19.27;;;13.95;;
63203;SDS011;49297;43.210;27.914;2022-10-19T17:29:10;19.58;;;12.38;;
63203;SDS011;49297;43.210;27.914;2022-10-19T17:31:36;15.02;;;11.77;;
63203;SDS011;49297;43.210;27.914;2022-10-19T17:34:04;20.60;;;12.70;;
63203;SDS011;49297;43.210;27.914;2022-10-19T17:36:33;15.65;;;11.88;;
63203;SDS011;49297;43.210;27.914;2022-10-19T17:39:03;14.45;;;11.27;;
63203;SDS011;49297;43.210;27.914;2022-10-19T17:41:31;14.15;;;12.52;;
63203;SDS011;49297;43.210;27.914;2022-10-19T17:43:57;17.20;;;11.40;;
63203;SDS011;49297;43.210;27.914;2022-10-19T17:46:26;14.77;;;11.45;;